createdAt,value
2015-10-08T00:00:03.811Z,-0.45
2015-10-08T00:00:16.217Z,-0.51
2015-10-08T00:00:28.608Z,-0.48
2015-10-08T00:00:41.016Z,-0.43
2015-10-08T00:00:53.407Z,-0.4
2015-10-08T00:01:05.813Z,-0.49
2015-10-08T00:01:18.235Z,-0.43
2015-10-08T00:01:30.641Z,-0.52
2015-10-08T00:01:43.066Z,-0.4
2015-10-08T00:01:55.488Z,-0.49
2015-10-08T00:02:07.910Z,-0.49
2015-10-08T00:02:20.347Z,-0.41
2015-10-08T00:02:32.738Z,-0.45
2015-10-08T00:02:45.147Z,-0.49
2015-10-08T00:02:57.538Z,-0.45
2015-10-08T00:03:09.225Z,-0.45
2015-10-08T00:03:21.616Z,-0.43
2015-10-08T00:03:34.006Z,-0.48
2015-10-08T00:03:46.399Z,-0.41
2015-10-08T00:03:58.790Z,-0.45
2015-10-08T00:04:11.212Z,-0.49
2015-10-08T00:04:23.633Z,-0.52
2015-10-08T00:04:36.040Z,-0.51
2015-10-08T00:04:48.465Z,-0.45
2015-10-08T00:05:00.902Z,-0.45
2015-10-08T00:05:13.340Z,-0.45
2015-10-08T00:05:25.761Z,-0.49
2015-10-08T00:05:38.168Z,-0.43
2015-10-08T00:05:50.577Z,-0.49
2015-10-08T00:06:02.968Z,-0.45
2015-10-08T00:06:15.374Z,-0.49
2015-10-08T00:06:27.764Z,-0.46
2015-10-08T00:06:40.155Z,-0.62
2015-10-08T00:06:52.564Z,-0.45
2015-10-08T00:07:04.955Z,-0.45
2015-10-08T00:07:17.361Z,-0.49
2015-10-08T00:07:29.783Z,-0.46
2015-10-08T00:07:42.174Z,-0.58
2015-10-08T00:07:54.598Z,-0.46
2015-10-08T00:08:07.019Z,-0.54
2015-10-08T00:08:19.285Z,-0.43
2015-10-08T00:08:31.723Z,-0.45
2015-10-08T00:08:44.147Z,-0.43
2015-10-08T00:08:56.538Z,-0.62
2015-10-08T00:09:08.929Z,-0.45
2015-10-08T00:09:21.335Z,-0.45
2015-10-08T00:09:33.726Z,-0.62
2015-10-08T00:09:46.119Z,-0.45
2015-10-08T00:09:58.510Z,-0.43
2015-10-08T00:10:10.916Z,-0.58
2015-10-08T00:10:23.307Z,-0.46
2015-10-08T00:10:35.713Z,-0.45
2015-10-08T00:10:48.121Z,-0.58
2015-10-08T00:11:00.527Z,-0.48
2015-10-08T00:11:13.012Z,-0.54
2015-10-08T00:11:25.434Z,-0.51
2015-10-08T00:11:37.871Z,-0.46
2015-10-08T00:11:50.296Z,-0.62
2015-10-08T00:12:02.687Z,-0.56
2015-10-08T00:12:14.921Z,-0.45
2015-10-08T00:12:27.343Z,-0.61
2015-10-08T00:12:39.734Z,-0.43
2015-10-08T00:12:52.127Z,-0.61
2015-10-08T00:13:04.518Z,-0.49
2015-10-08T00:13:16.924Z,-0.48
2015-10-08T00:13:29.315Z,-0.48
2015-10-08T00:13:41.721Z,-0.46
2015-10-08T00:13:54.130Z,-0.52
2015-10-08T00:14:06.552Z,-0.51
2015-10-08T00:14:19.005Z,-0.58
2015-10-08T00:14:31.396Z,-0.58
2015-10-08T00:14:43.802Z,-0.43
2015-10-08T00:14:56.195Z,-0.49
2015-10-08T00:15:08.601Z,-0.51
2015-10-08T00:15:20.992Z,-0.48
2015-10-08T00:15:31.976Z,-0.51
2015-10-08T00:15:44.367Z,-0.54
2015-10-08T00:15:56.760Z,-0.52
2015-10-08T00:16:09.166Z,-0.51
2015-10-08T00:16:21.557Z,-0.49
2015-10-08T00:16:33.963Z,-0.45
2015-10-08T00:16:46.385Z,-0.45
2015-10-08T00:16:58.825Z,-0.46
2015-10-08T00:17:11.231Z,-0.49
2015-10-08T00:17:23.622Z,-0.43
2015-10-08T00:17:36.012Z,-0.45
2015-10-08T00:17:48.403Z,-0.52
2015-10-08T00:18:00.812Z,-0.45
2015-10-08T00:18:13.203Z,-0.52
2015-10-08T00:18:25.609Z,-0.46
2015-10-08T00:18:38.015Z,-0.49
2015-10-08T00:18:50.409Z,-0.49
2015-10-08T00:19:02.815Z,-0.52
2015-10-08T00:19:15.221Z,-0.41
2015-10-08T00:19:27.627Z,-0.48
2015-10-08T00:19:40.033Z,-0.49
2015-10-08T00:19:52.442Z,-0.45
2015-10-08T00:20:04.817Z,-0.4
2015-10-08T00:20:17.208Z,-0.46
2015-10-08T00:20:29.598Z,-0.45
2015-10-08T00:20:41.833Z,-0.48
2015-10-08T00:20:54.241Z,-0.45
2015-10-08T00:21:06.647Z,-0.46
2015-10-08T00:21:19.038Z,-0.43
2015-10-08T00:21:31.444Z,-0.43
2015-10-08T00:21:43.866Z,-0.46
2015-10-08T00:21:56.275Z,-0.46
2015-10-08T00:22:08.697Z,-0.43
2015-10-08T00:22:21.119Z,-0.46
2015-10-08T00:22:33.556Z,-0.41
2015-10-08T00:22:45.994Z,-0.49
2015-10-08T00:22:58.419Z,-0.46
2015-10-08T00:23:10.809Z,-0.43
2015-10-08T00:23:23.200Z,-0.58
2015-10-08T00:23:34.888Z,-0.49
2015-10-08T00:23:47.278Z,-0.48
2015-10-08T00:23:59.671Z,-0.61
2015-10-08T00:24:12.077Z,-0.52
2015-10-08T00:24:24.468Z,-0.54
2015-10-08T00:24:36.858Z,-0.48
2015-10-08T00:24:49.265Z,-0.54
2015-10-08T00:25:01.675Z,-0.46
2015-10-08T00:25:14.081Z,-0.43
2015-10-08T00:25:26.503Z,-0.62
2015-10-08T00:25:38.940Z,-0.48
2015-10-08T00:25:51.347Z,-0.46
2015-10-08T00:26:03.756Z,-0.49
2015-10-08T00:26:16.147Z,-0.62
2015-10-08T00:26:28.553Z,-0.62
2015-10-08T00:26:40.506Z,-0.56
2015-10-08T00:26:52.897Z,-0.54
2015-10-08T00:27:05.305Z,-0.59
2015-10-08T00:27:17.711Z,-0.54
2015-10-08T00:27:30.102Z,-0.56
2015-10-08T00:27:42.508Z,-0.55
2015-10-08T00:27:54.930Z,-0.64
2015-10-08T00:28:07.338Z,-0.49
2015-10-08T00:28:19.776Z,-0.61
2015-10-08T00:28:32.197Z,-0.55
2015-10-08T00:28:44.619Z,-0.61
2015-10-08T00:28:57.041Z,-0.56
2015-10-08T00:29:09.482Z,-0.55
2015-10-08T00:29:21.872Z,-0.54
2015-10-08T00:29:34.279Z,-0.52
2015-10-08T00:29:46.685Z,-0.51
2015-10-08T00:29:59.091Z,-0.61
2015-10-08T00:30:11.490Z,-0.59
2015-10-08T00:30:23.896Z,-0.52
2015-10-08T00:30:36.302Z,-0.59
2015-10-08T00:30:48.693Z,-0.58
2015-10-08T00:31:01.102Z,-0.56
2015-10-08T00:31:13.524Z,-0.58
2015-10-08T00:31:25.946Z,-0.56
2015-10-08T00:31:38.383Z,-0.62
2015-10-08T00:31:50.805Z,-0.56
2015-10-08T00:32:03.199Z,-0.59
2015-10-08T00:32:15.605Z,-0.64
2015-10-08T00:32:27.996Z,-0.62
2015-10-08T00:32:40.402Z,-0.61
2015-10-08T00:32:52.792Z,-0.66
2015-10-08T00:33:05.185Z,-0.64
2015-10-08T00:33:17.576Z,-0.59
2015-10-08T00:33:29.982Z,-0.58
2015-10-08T00:33:42.388Z,-0.67
2015-10-08T00:33:54.654Z,-0.59
2015-10-08T00:34:07.063Z,-0.61
2015-10-08T00:34:19.501Z,-0.62
2015-10-08T00:34:31.922Z,-0.67
2015-10-08T00:34:44.344Z,-0.62
2015-10-08T00:34:56.766Z,-0.56
2015-10-08T00:35:09.207Z,-0.66
2015-10-08T00:35:21.629Z,-0.56
2015-10-08T00:35:34.035Z,-0.59
2015-10-08T00:35:46.425Z,-0.64
2015-10-08T00:35:58.816Z,-0.61
2015-10-08T00:36:11.210Z,-0.61
2015-10-08T00:36:23.600Z,-0.61
2015-10-08T00:36:36.007Z,-0.67
2015-10-08T00:36:48.413Z,-0.67
2015-10-08T00:37:00.819Z,-0.64
2015-10-08T00:37:13.227Z,-0.62
2015-10-08T00:37:25.634Z,-0.56
2015-10-08T00:37:38.071Z,-0.58
2015-10-08T00:37:50.493Z,-0.67
2015-10-08T00:38:02.930Z,-0.61
2015-10-08T00:38:15.355Z,-0.62
2015-10-08T00:38:27.762Z,-0.64
2015-10-08T00:38:39.449Z,-0.62
2015-10-08T00:38:51.840Z,-0.62
2015-10-08T00:39:04.230Z,-0.62
2015-10-08T00:39:15.921Z,-0.62
2015-10-08T00:39:28.311Z,-0.62
2015-10-08T00:39:40.718Z,-0.61
2015-10-08T00:39:53.108Z,-0.61
2015-10-08T00:40:05.499Z,-0.58
2015-10-08T00:40:17.924Z,-0.59
2015-10-08T00:40:30.346Z,-0.66
2015-10-08T00:40:42.752Z,-0.66
2015-10-08T00:40:55.174Z,-0.64
2015-10-08T00:41:07.611Z,-0.64
2015-10-08T00:41:20.051Z,-0.61
2015-10-08T00:41:31.770Z,-0.59
2015-10-08T00:41:44.160Z,-0.59
2015-10-08T00:41:56.551Z,-0.61
2015-10-08T00:42:08.941Z,-0.61
2015-10-08T00:42:21.351Z,-0.56
2015-10-08T00:42:33.741Z,-0.59
2015-10-08T00:42:46.148Z,-0.58
2015-10-08T00:42:58.554Z,-0.56
2015-10-08T00:43:10.944Z,-0.56
2015-10-08T00:43:23.368Z,-0.59
2015-10-08T00:43:35.775Z,-0.61
2015-10-08T00:43:47.462Z,-0.59
2015-10-08T00:43:59.900Z,-0.59
2015-10-08T00:44:12.321Z,-0.58
2015-10-08T00:44:24.746Z,-0.58
2015-10-08T00:44:37.168Z,-0.49
2015-10-08T00:44:49.559Z,-0.52
2015-10-08T00:45:01.949Z,-0.55
2015-10-08T00:45:14.340Z,-0.54
2015-10-08T00:45:26.735Z,-0.55
2015-10-08T00:45:39.141Z,-0.59
2015-10-08T00:45:51.532Z,-0.61
2015-10-08T00:46:03.922Z,-0.46
2015-10-08T00:46:16.328Z,-0.51
2015-10-08T00:46:28.752Z,-0.58
2015-10-08T00:46:41.159Z,-0.48
2015-10-08T00:46:53.549Z,-0.62
2015-10-08T00:47:05.971Z,-0.43
2015-10-08T00:47:18.393Z,-0.49
2015-10-08T00:47:30.832Z,-0.46
2015-10-08T00:47:43.239Z,-0.45
2015-10-08T00:47:55.614Z,-0.56
2015-10-08T00:48:08.020Z,-0.49
2015-10-08T00:48:20.411Z,-0.49
2015-10-08T00:48:32.821Z,-0.43
2015-10-08T00:48:45.227Z,-0.43
2015-10-08T00:48:57.618Z,-0.48
2015-10-08T00:49:10.118Z,-0.41
2015-10-08T00:49:22.524Z,-0.54
2015-10-08T00:49:34.932Z,-0.43
2015-10-08T00:49:47.354Z,-0.51
2015-10-08T00:49:59.760Z,-0.48
2015-10-08T00:50:12.198Z,-0.49
2015-10-08T00:50:23.917Z,-0.52
2015-10-08T00:50:36.341Z,-0.45
2015-10-08T00:50:48.748Z,-0.49
2015-10-08T00:51:01.154Z,-0.51
2015-10-08T00:51:13.545Z,-0.49
2015-10-08T00:51:25.951Z,-0.49
2015-10-08T00:51:38.360Z,-0.52
2015-10-08T00:51:50.751Z,-0.46
2015-10-08T00:52:03.157Z,-0.48
2015-10-08T00:52:15.563Z,-0.49
2015-10-08T00:52:27.954Z,-0.58
2015-10-08T00:52:40.362Z,-0.45
2015-10-08T00:52:52.768Z,-0.49
2015-10-08T00:53:05.175Z,-0.46
2015-10-08T00:53:17.596Z,-0.49
2015-10-08T00:53:30.021Z,-0.62
2015-10-08T00:53:42.474Z,-0.51
2015-10-08T00:53:54.896Z,-0.58
2015-10-08T00:54:07.334Z,-0.54
2015-10-08T00:54:19.584Z,-0.49
2015-10-08T00:54:31.977Z,-0.54
2015-10-08T00:54:44.368Z,-0.64
2015-10-08T00:54:56.790Z,-0.55
2015-10-08T00:55:09.181Z,-0.55
2015-10-08T00:55:21.587Z,-0.55
2015-10-08T00:55:33.980Z,-0.55
2015-10-08T00:55:46.387Z,-0.54
2015-10-08T00:55:58.793Z,-0.58
2015-10-08T00:56:11.199Z,-0.59
2015-10-08T00:56:23.605Z,-0.61
2015-10-08T00:56:36.029Z,-0.62
2015-10-08T00:56:48.451Z,-0.59
2015-10-08T00:57:00.842Z,-0.59
2015-10-08T00:57:13.217Z,-0.58
2015-10-08T00:57:25.607Z,-0.59
2015-10-08T00:57:37.986Z,-0.62
2015-10-08T00:57:50.377Z,-0.61
2015-10-08T00:58:02.768Z,-0.66
2015-10-08T00:58:15.158Z,-0.62
2015-10-08T00:58:27.408Z,-0.59
2015-10-08T00:58:39.817Z,-0.58
2015-10-08T00:58:52.598Z,-0.58
2015-10-08T00:59:05.020Z,-0.67
2015-10-08T00:59:17.442Z,-0.58
2015-10-08T00:59:29.863Z,-0.59
2015-10-08T00:59:42.288Z,-0.61
2015-10-08T00:59:54.710Z,-0.61
2015-10-08T01:00:07.132Z,-0.61
2015-10-08T01:00:19.523Z,-0.64
2015-10-08T01:00:31.929Z,-0.64
2015-10-08T01:00:44.322Z,-0.66
2015-10-08T01:00:56.728Z,-0.61
2015-10-08T01:01:08.400Z,-0.59
2015-10-08T01:01:20.806Z,-0.67
2015-10-08T01:01:33.197Z,-0.59
2015-10-08T01:01:45.606Z,-0.61
2015-10-08T01:01:58.012Z,-0.62
2015-10-08T01:02:10.418Z,-0.62
2015-10-08T01:02:22.825Z,-0.66
2015-10-08T01:02:35.262Z,-0.56
2015-10-08T01:02:47.671Z,-0.66
2015-10-08T01:03:00.109Z,-0.59
2015-10-08T01:03:12.531Z,-0.64
2015-10-08T01:03:24.953Z,-0.66
2015-10-08T01:03:37.359Z,-0.62
2015-10-08T01:03:49.751Z,-0.67
2015-10-08T01:04:02.158Z,-0.62
2015-10-08T01:04:14.548Z,-0.66
2015-10-08T01:04:26.939Z,-0.67
2015-10-08T01:04:39.345Z,-0.61
2015-10-08T01:04:51.754Z,-0.64
2015-10-08T01:05:04.176Z,-0.55
2015-10-08T01:05:16.583Z,-0.58
2015-10-08T01:05:28.989Z,-0.59
2015-10-08T01:05:41.270Z,-0.61
2015-10-08T01:05:53.695Z,-0.67
2015-10-08T01:06:06.132Z,-0.69
2015-10-08T01:06:18.570Z,-0.64
2015-10-08T01:06:30.992Z,-0.61
2015-10-08T01:06:43.398Z,-0.64
2015-10-08T01:06:55.792Z,-0.67
2015-10-08T01:07:08.182Z,-0.67
2015-10-08T01:07:19.885Z,-0.66
2015-10-08T01:07:32.276Z,-0.64
2015-10-08T01:07:44.684Z,-0.62
2015-10-08T01:07:57.075Z,-0.67
2015-10-08T01:08:09.466Z,-0.58
2015-10-08T01:08:21.872Z,-0.59
2015-10-08T01:08:34.294Z,-0.61
2015-10-08T01:08:46.704Z,-0.61
2015-10-08T01:08:59.110Z,-0.59
2015-10-08T01:09:11.548Z,-0.7
2015-10-08T01:09:23.985Z,-0.67
2015-10-08T01:09:36.438Z,-0.64
2015-10-08T01:09:48.831Z,-0.69
2015-10-08T01:10:01.222Z,-0.61
2015-10-08T01:10:13.456Z,-0.62
2015-10-08T01:10:25.862Z,-0.59
2015-10-08T01:10:38.253Z,-0.69
2015-10-08T01:10:50.646Z,-0.66
2015-10-08T01:11:03.053Z,-0.59
2015-10-08T01:11:15.443Z,-0.61
2015-10-08T01:11:27.850Z,-0.62
2015-10-08T01:11:40.271Z,-0.56
2015-10-08T01:11:52.681Z,-0.61
2015-10-08T01:12:05.087Z,-0.61
2015-10-08T01:12:17.509Z,-0.58
2015-10-08T01:12:29.946Z,-0.64
2015-10-08T01:12:42.384Z,-0.61
2015-10-08T01:12:54.823Z,-0.61
2015-10-08T01:13:07.245Z,-0.62
2015-10-08T01:13:19.683Z,-0.59
2015-10-08T01:13:32.105Z,-0.58
2015-10-08T01:13:44.511Z,-0.59
2015-10-08T01:13:56.903Z,-0.59
2015-10-08T01:14:08.591Z,-0.59
2015-10-08T01:14:20.997Z,-0.59
2015-10-08T01:14:33.388Z,-0.59
2015-10-08T01:14:45.794Z,-0.61
2015-10-08T01:14:57.469Z,-0.61
2015-10-08T01:15:09.860Z,-0.56
2015-10-08T01:15:22.266Z,-0.54
2015-10-08T01:15:34.672Z,-0.58
2015-10-08T01:15:47.063Z,-0.59
2015-10-08T01:15:59.488Z,-0.62
2015-10-08T01:16:11.894Z,-0.58
2015-10-08T01:16:24.300Z,-0.54
2015-10-08T01:16:36.566Z,-0.55
2015-10-08T01:16:49.005Z,-0.56
2015-10-08T01:17:01.396Z,-0.52
2015-10-08T01:17:13.786Z,-0.55
2015-10-08T01:17:26.036Z,-0.56
2015-10-08T01:17:38.427Z,-0.58
2015-10-08T01:17:50.806Z,-0.59
2015-10-08T01:18:03.197Z,-0.59
2015-10-08T01:18:15.587Z,-0.59
2015-10-08T01:18:27.978Z,-0.66
2015-10-08T01:18:40.384Z,-0.66
2015-10-08T01:18:52.792Z,-0.61
2015-10-08T01:19:05.214Z,-0.61
2015-10-08T01:19:17.621Z,-0.62
2015-10-08T01:19:30.042Z,-0.58
2015-10-08T01:19:42.464Z,-0.69
2015-10-08T01:19:54.905Z,-0.61
2015-10-08T01:20:07.295Z,-0.56
2015-10-08T01:20:19.686Z,-0.64
2015-10-08T01:20:32.092Z,-0.61
2015-10-08T01:20:44.483Z,-0.67
2015-10-08T01:20:56.877Z,-0.61
2015-10-08T01:21:09.283Z,-0.55
2015-10-08T01:21:21.673Z,-0.64
2015-10-08T01:21:34.080Z,-0.61
2015-10-08T01:21:46.486Z,-0.61
2015-10-08T01:21:58.910Z,-0.56
2015-10-08T01:22:11.347Z,-0.56
2015-10-08T01:22:23.769Z,-0.69
2015-10-08T01:22:36.191Z,-0.62
2015-10-08T01:22:48.629Z,-0.61
2015-10-08T01:23:01.069Z,-0.64
2015-10-08T01:23:13.491Z,-0.55
2015-10-08T01:23:25.882Z,-0.64
2015-10-08T01:23:38.288Z,-0.7
2015-10-08T01:23:50.694Z,-0.64
2015-10-08T01:24:03.089Z,-0.64
2015-10-08T01:24:15.479Z,-0.69
2015-10-08T01:24:27.886Z,-0.72
2015-10-08T01:24:40.276Z,-0.66
2015-10-08T01:24:52.698Z,-0.64
2015-10-08T01:25:05.106Z,-0.59
2015-10-08T01:25:17.513Z,-0.59
2015-10-08T01:25:29.934Z,-0.69
2015-10-08T01:25:42.356Z,-0.62
2015-10-08T01:25:54.794Z,-0.67
2015-10-08T01:26:07.234Z,-0.74
2015-10-08T01:26:19.672Z,-0.73
2015-10-08T01:26:32.062Z,-0.72
2015-10-08T01:26:44.469Z,-0.7
2015-10-08T01:26:56.875Z,-0.59
2015-10-08T01:27:09.269Z,-0.7
2015-10-08T01:27:21.675Z,-0.62
2015-10-08T01:27:34.065Z,-0.69
2015-10-08T01:27:46.472Z,-0.69
2015-10-08T01:27:58.862Z,-0.67
2015-10-08T01:28:11.287Z,-0.58
2015-10-08T01:28:23.678Z,-0.7
2015-10-08T01:28:36.100Z,-0.7
2015-10-08T01:28:48.522Z,-0.7
2015-10-08T01:29:00.943Z,-0.69
2015-10-08T01:29:13.367Z,-0.66
2015-10-08T01:29:25.820Z,-0.67
2015-10-08T01:29:38.227Z,-0.7
2015-10-08T01:29:50.617Z,-0.69
2015-10-08T01:30:02.852Z,-0.58
2015-10-08T01:30:15.261Z,-0.67
2015-10-08T01:30:27.667Z,-0.67
2015-10-08T01:30:40.073Z,-0.72
2015-10-08T01:30:52.464Z,-0.67
2015-10-08T01:31:04.855Z,-0.62
2015-10-08T01:31:17.264Z,-0.61
2015-10-08T01:31:29.686Z,-0.66
2015-10-08T01:31:42.092Z,-0.64
2015-10-08T01:31:54.514Z,-0.64
2015-10-08T01:32:06.951Z,-0.61
2015-10-08T01:32:19.375Z,-0.64
2015-10-08T01:32:31.797Z,-0.69
2015-10-08T01:32:44.203Z,-0.64
2015-10-08T01:32:56.610Z,-0.58
2015-10-08T01:33:09.000Z,-0.62
2015-10-08T01:33:21.394Z,-0.67
2015-10-08T01:33:33.785Z,-0.59
2015-10-08T01:33:46.160Z,-0.61
2015-10-08T01:33:58.566Z,-0.59
2015-10-08T01:34:10.972Z,-0.66
2015-10-08T01:34:23.366Z,-0.59
2015-10-08T01:34:35.788Z,-0.61
2015-10-08T01:34:48.209Z,-0.66
2015-10-08T01:35:00.616Z,-0.56
2015-10-08T01:35:13.006Z,-0.59
2015-10-08T01:35:25.399Z,-0.58
2015-10-08T01:35:37.805Z,-0.66
2015-10-08T01:35:50.040Z,-0.61
2015-10-08T01:36:02.430Z,-0.56
2015-10-08T01:36:14.821Z,-0.69
2015-10-08T01:36:27.214Z,-0.59
2015-10-08T01:36:39.621Z,-0.59
2015-10-08T01:36:52.027Z,-0.69
2015-10-08T01:37:04.449Z,-0.69
2015-10-08T01:37:16.902Z,-0.66
2015-10-08T01:37:29.342Z,-0.56
2015-10-08T01:37:41.780Z,-0.59
2015-10-08T01:37:54.202Z,-0.64
2015-10-08T01:38:06.624Z,-0.58
2015-10-08T01:38:19.049Z,-0.61
2015-10-08T01:38:31.455Z,-0.61
2015-10-08T01:38:43.845Z,-0.61
2015-10-08T01:38:56.252Z,-0.58
2015-10-08T01:39:08.642Z,-0.62
2015-10-08T01:39:21.051Z,-0.59
2015-10-08T01:39:33.441Z,-0.64
2015-10-08T01:39:45.832Z,-0.62
2015-10-08T01:39:58.254Z,-0.62
2015-10-08T01:40:10.660Z,-0.62
2015-10-08T01:40:23.069Z,-0.66
2015-10-08T01:40:34.804Z,-0.64
2015-10-08T01:40:47.225Z,-0.66
2015-10-08T01:40:59.647Z,-0.66
2015-10-08T01:41:12.085Z,-0.62
2015-10-08T01:41:24.493Z,-0.69
2015-10-08T01:41:36.884Z,-0.66
2015-10-08T01:41:49.274Z,-0.66
2015-10-08T01:42:01.665Z,-0.59
2015-10-08T01:42:14.056Z,-0.64
2015-10-08T01:42:26.309Z,-0.58
2015-10-08T01:42:38.715Z,-0.61
2015-10-08T01:42:51.105Z,-0.59
2015-10-08T01:43:03.512Z,-0.59
2015-10-08T01:43:15.918Z,-0.67
2015-10-08T01:43:28.343Z,-0.69
2015-10-08T01:43:40.765Z,-0.64
2015-10-08T01:43:53.187Z,-0.58
2015-10-08T01:44:05.608Z,-0.59
2015-10-08T01:44:17.999Z,-0.61
2015-10-08T01:44:30.408Z,-0.66
2015-10-08T01:44:42.799Z,-0.59
2015-10-08T01:44:55.190Z,-0.66
2015-10-08T01:45:07.596Z,-0.64
2015-10-08T01:45:20.002Z,-0.58
2015-10-08T01:45:32.396Z,-0.72
2015-10-08T01:45:44.802Z,-0.66
2015-10-08T01:45:57.193Z,-0.62
2015-10-08T01:46:09.630Z,-0.73
2015-10-08T01:46:22.021Z,-0.72
2015-10-08T01:46:34.446Z,-0.64
2015-10-08T01:46:46.867Z,-0.67
2015-10-08T01:46:59.289Z,-0.66
2015-10-08T01:47:11.727Z,-0.7
2015-10-08T01:47:24.149Z,-0.62
2015-10-08T01:47:36.557Z,-0.66
2015-10-08T01:47:48.948Z,-0.61
2015-10-08T01:48:01.354Z,-0.61
2015-10-08T01:48:13.744Z,-0.58
2015-10-08T01:48:26.151Z,-0.62
2015-10-08T01:48:38.560Z,-0.62
2015-10-08T01:48:50.951Z,-0.64
2015-10-08T01:49:03.357Z,-0.58
2015-10-08T01:49:15.763Z,-0.59
2015-10-08T01:49:28.169Z,-0.58
2015-10-08T01:49:40.594Z,-0.64
2015-10-08T01:49:53.016Z,-0.59
2015-10-08T01:50:05.438Z,-0.59
2015-10-08T01:50:17.891Z,-0.64
2015-10-08T01:50:30.313Z,-0.59
2015-10-08T01:50:42.706Z,-0.61
2015-10-08T01:50:55.112Z,-0.61
2015-10-08T01:51:07.502Z,-0.7
2015-10-08T01:51:19.893Z,-0.66
2015-10-08T01:51:31.581Z,-0.56
2015-10-08T01:51:44.005Z,-0.61
2015-10-08T01:51:56.396Z,-0.66
2015-10-08T01:52:08.787Z,-0.66
2015-10-08T01:52:21.193Z,-0.67
2015-10-08T01:52:33.599Z,-0.59
2015-10-08T01:52:46.024Z,-0.64
2015-10-08T01:52:58.446Z,-0.61
2015-10-08T01:53:10.868Z,-0.58
2015-10-08T01:53:23.290Z,-0.59
2015-10-08T01:53:35.696Z,-0.58
2015-10-08T01:53:48.090Z,-0.59
2015-10-08T01:54:00.496Z,-0.58
2015-10-08T01:54:12.886Z,-0.62
2015-10-08T01:54:25.277Z,-0.55
2015-10-08T01:54:37.685Z,-0.66
2015-10-08T01:54:50.092Z,-0.61
2015-10-08T01:55:02.482Z,-0.64
2015-10-08T01:55:14.904Z,-0.62
2015-10-08T01:55:27.310Z,-0.56
2015-10-08T01:55:39.720Z,-0.58
2015-10-08T01:55:52.001Z,-0.64
2015-10-08T01:56:04.095Z,-0.62
2015-10-08T01:56:16.548Z,-0.64
2015-10-08T01:56:29.048Z,-0.61
2015-10-08T01:56:41.316Z,-0.64
2015-10-08T01:56:53.707Z,-0.66
2015-10-08T01:57:06.098Z,-0.62
2015-10-08T01:57:18.488Z,-0.61
2015-10-08T01:57:30.894Z,-0.61
2015-10-08T01:57:43.304Z,-0.62
2015-10-08T01:57:55.694Z,-0.61
2015-10-08T01:58:08.116Z,-0.67
2015-10-08T01:58:20.507Z,-0.64
2015-10-08T01:58:32.929Z,-0.61
2015-10-08T01:58:44.635Z,-0.64
2015-10-08T01:58:57.072Z,-0.66
2015-10-08T01:59:09.494Z,-0.59
2015-10-08T01:59:21.916Z,-0.69
2015-10-08T01:59:34.322Z,-0.67
2015-10-08T01:59:46.716Z,-0.64
2015-10-08T01:59:59.107Z,-0.69
2015-10-08T02:00:11.513Z,-0.67
2015-10-08T02:00:23.903Z,-0.64
2015-10-08T02:00:35.591Z,-0.61
2015-10-08T02:00:47.984Z,-0.64
2015-10-08T02:01:00.374Z,-0.64
2015-10-08T02:01:12.765Z,-0.66
2015-10-08T02:01:25.171Z,-0.59
2015-10-08T02:01:37.577Z,-0.64
2015-10-08T02:01:50.001Z,-0.66
2015-10-08T02:02:02.407Z,-0.67
2015-10-08T02:02:14.829Z,-0.67
2015-10-08T02:02:27.251Z,-0.66
2015-10-08T02:02:39.673Z,-0.64
2015-10-08T02:02:52.067Z,-0.64
2015-10-08T02:03:04.457Z,-0.62
2015-10-08T02:03:16.848Z,-0.67
2015-10-08T02:03:29.239Z,-0.66
2015-10-08T02:03:41.645Z,-0.61
2015-10-08T02:03:54.038Z,-0.64
2015-10-08T02:04:06.429Z,-0.59
2015-10-08T02:04:18.820Z,-0.62
2015-10-08T02:04:31.242Z,-0.62
2015-10-08T02:04:43.648Z,-0.61
2015-10-08T02:04:56.057Z,-0.62
2015-10-08T02:05:08.479Z,-0.59
2015-10-08T02:05:20.916Z,-0.61
2015-10-08T02:05:32.620Z,-0.59
2015-10-08T02:05:45.026Z,-0.58
2015-10-08T02:05:57.419Z,-0.58
2015-10-08T02:06:09.826Z,-0.66
2015-10-08T02:06:22.216Z,-0.66
2015-10-08T02:06:34.607Z,-0.7
2015-10-08T02:06:46.998Z,-0.67
2015-10-08T02:06:59.406Z,-0.72
2015-10-08T02:07:11.796Z,-0.69
2015-10-08T02:07:24.203Z,-0.73
2015-10-08T02:07:36.609Z,-0.74
2015-10-08T02:07:49.046Z,-0.69
2015-10-08T02:08:01.471Z,-0.72
2015-10-08T02:08:13.893Z,-0.7
2015-10-08T02:08:26.159Z,-0.62
2015-10-08T02:08:38.596Z,-0.67
2015-10-08T02:08:51.003Z,-0.77
2015-10-08T02:09:03.396Z,-0.67
2015-10-08T02:09:15.787Z,-0.76
2015-10-08T02:09:28.177Z,-0.7
2015-10-08T02:09:40.584Z,-0.7
2015-10-08T02:09:52.974Z,-0.7
2015-10-08T02:10:05.383Z,-0.76
2015-10-08T02:10:17.617Z,-0.7
2015-10-08T02:10:30.023Z,-0.69
2015-10-08T02:10:42.445Z,-0.7
2015-10-08T02:10:54.836Z,-0.7
2015-10-08T02:11:07.245Z,-0.73
2015-10-08T02:11:19.682Z,-0.67
2015-10-08T02:11:32.104Z,-0.73
2015-10-08T02:11:44.542Z,-0.73
2015-10-08T02:11:56.826Z,-0.72
2015-10-08T02:12:09.248Z,-0.72
2015-10-08T02:12:21.639Z,-0.76
2015-10-08T02:12:34.014Z,-0.73
2015-10-08T02:12:46.420Z,-0.77
2015-10-08T02:12:58.798Z,-0.76
2015-10-08T02:13:11.173Z,-0.7
2015-10-08T02:13:23.579Z,-0.72
2015-10-08T02:13:35.954Z,-0.69
2015-10-08T02:13:48.345Z,-0.72
2015-10-08T02:14:00.770Z,-0.67
2015-10-08T02:14:13.176Z,-0.69
2015-10-08T02:14:25.598Z,-0.79
2015-10-08T02:14:38.035Z,-0.76
2015-10-08T02:14:50.457Z,-0.7
2015-10-08T02:15:02.897Z,-0.79
2015-10-08T02:15:15.318Z,-0.72
2015-10-08T02:15:27.709Z,-0.8
2015-10-08T02:15:40.100Z,-0.69
2015-10-08T02:15:52.506Z,-0.72
2015-10-08T02:16:04.900Z,-0.76
2015-10-08T02:16:17.306Z,-0.77
2015-10-08T02:16:29.712Z,-0.72
2015-10-08T02:16:42.103Z,-0.76
2015-10-08T02:16:54.493Z,-0.64
2015-10-08T02:17:06.887Z,-0.74
2015-10-08T02:17:19.309Z,-0.69
2015-10-08T02:17:31.715Z,-0.76
2015-10-08T02:17:44.121Z,-0.72
2015-10-08T02:17:56.543Z,-0.67
2015-10-08T02:18:08.951Z,-0.7
2015-10-08T02:18:20.639Z,-0.72
2015-10-08T02:18:33.030Z,-0.7
2015-10-08T02:18:45.436Z,-0.73
2015-10-08T02:18:57.826Z,-0.74
2015-10-08T02:19:10.486Z,-0.73
2015-10-08T02:19:22.892Z,-0.67
2015-10-08T02:19:35.283Z,-0.79
2015-10-08T02:19:47.689Z,-0.7
2015-10-08T02:20:00.079Z,-0.66
2015-10-08T02:20:12.489Z,-0.76
2015-10-08T02:20:24.911Z,-0.72
2015-10-08T02:20:37.332Z,-0.74
2015-10-08T02:20:49.770Z,-0.74
2015-10-08T02:21:02.161Z,-0.74
2015-10-08T02:21:14.570Z,-0.74
2015-10-08T02:21:26.960Z,-0.72
2015-10-08T02:21:39.367Z,-0.74
2015-10-08T02:21:51.757Z,-0.76
2015-10-08T02:22:04.148Z,-0.73
2015-10-08T02:22:16.541Z,-0.7
2015-10-08T02:22:28.947Z,-0.76
2015-10-08T02:22:41.353Z,-0.76
2015-10-08T02:22:53.759Z,-0.74
2015-10-08T02:23:06.166Z,-0.8
2015-10-08T02:23:18.606Z,-0.76
2015-10-08T02:23:31.028Z,-0.77
2015-10-08T02:23:43.434Z,-0.73
2015-10-08T02:23:55.840Z,-0.82
2015-10-08T02:24:08.247Z,-0.77
2015-10-08T02:24:20.640Z,-0.74
2015-10-08T02:24:33.047Z,-0.87
2015-10-08T02:24:45.437Z,-0.8
2015-10-08T02:24:57.828Z,-0.8
2015-10-08T02:25:10.218Z,-0.74
2015-10-08T02:25:22.627Z,-0.79
2015-10-08T02:25:35.033Z,-0.85
2015-10-08T02:25:47.455Z,-0.91
2015-10-08T02:25:59.892Z,-0.8
2015-10-08T02:26:12.299Z,-0.85
2015-10-08T02:26:24.739Z,-0.79
2015-10-08T02:26:37.177Z,-0.82
2015-10-08T02:26:49.583Z,-0.87
2015-10-08T02:27:01.973Z,-0.85
2015-10-08T02:27:14.380Z,-0.85
2015-10-08T02:27:26.773Z,-0.8
2015-10-08T02:27:39.164Z,-0.84
2015-10-08T02:27:51.555Z,-0.77
2015-10-08T02:28:03.101Z,-0.77
2015-10-08T02:28:15.511Z,-0.73
2015-10-08T02:28:27.214Z,-0.76
2015-10-08T02:28:39.636Z,-0.84
2015-10-08T02:28:52.073Z,-0.8
2015-10-08T02:29:04.495Z,-0.93
2015-10-08T02:29:16.920Z,-0.76
2015-10-08T02:29:29.311Z,-0.89
2015-10-08T02:29:41.717Z,-0.7
2015-10-08T02:29:54.107Z,-0.87
2015-10-08T02:30:05.795Z,-0.84
2015-10-08T02:30:18.188Z,-0.77
2015-10-08T02:30:30.578Z,-0.8
2015-10-08T02:30:42.984Z,-0.74
2015-10-08T02:30:55.375Z,-0.73
2015-10-08T02:31:07.797Z,-0.73
2015-10-08T02:31:20.222Z,-0.73
2015-10-08T02:31:32.644Z,-0.74
2015-10-08T02:31:45.066Z,-0.72
2015-10-08T02:31:57.487Z,-0.74
2015-10-08T02:32:09.925Z,-0.73
2015-10-08T02:32:22.319Z,-0.73
2015-10-08T02:32:34.725Z,-0.8
2015-10-08T02:32:47.115Z,-0.73
2015-10-08T02:32:59.506Z,-0.72
2015-10-08T02:33:11.897Z,-0.73
2015-10-08T02:33:24.306Z,-0.72
2015-10-08T02:33:36.697Z,-0.77
2015-10-08T02:33:49.103Z,-0.8
2015-10-08T02:34:01.493Z,-0.74
2015-10-08T02:34:13.900Z,-0.8
2015-10-08T02:34:26.308Z,-0.73
2015-10-08T02:34:38.745Z,-0.62
2015-10-08T02:34:51.167Z,-0.76
2015-10-08T02:35:03.589Z,-0.72
2015-10-08T02:35:16.011Z,-0.73
2015-10-08T02:35:28.420Z,-0.73
2015-10-08T02:35:40.811Z,-0.59
2015-10-08T02:35:53.202Z,-0.66
2015-10-08T02:36:05.608Z,-0.64
2015-10-08T02:36:17.998Z,-0.7
2015-10-08T02:36:30.408Z,-0.67
2015-10-08T02:36:42.830Z,-0.55
2015-10-08T02:36:55.220Z,-0.62
2015-10-08T02:37:07.611Z,-0.7
2015-10-08T02:37:20.017Z,-0.59
2015-10-08T02:37:32.426Z,-0.61
2015-10-08T02:37:44.833Z,-0.67
2015-10-08T02:37:57.254Z,-0.61
2015-10-08T02:38:09.676Z,-0.59
2015-10-08T02:38:22.114Z,-0.67
2015-10-08T02:38:34.539Z,-0.67
2015-10-08T02:38:46.945Z,-0.58
2015-10-08T02:38:59.336Z,-0.62
2015-10-08T02:39:11.742Z,-0.67
2015-10-08T02:39:24.132Z,-0.61
2015-10-08T02:39:36.525Z,-0.67
2015-10-08T02:39:48.916Z,-0.64